sensor_id;sensor_type;location;lat;lon;timestamp;P1;durP1;ratioP1;P2;durP2;ratioP2
76167;SDS011;64927;48.214;16.378;2023-05-07T00:00:26;4.60;;;2.10;;
76167;SDS011;64927;48.214;16.378;2023-05-07T00:02:52;3.13;;;2.20;;
76167;SDS011;64927;48.214;16.378;2023-05-07T00:05:17;2.50;;;2.13;;
76167;SDS011;64927;48.214;16.378;2023-05-07T00:07:43;4.30;;;2.28;;
76167;SDS011;64927;48.214;16.378;2023-05-07T00:10:11;3.10;;;2.10;;
76167;SDS011;64927;48.214;16.378;2023-05-07T00:12:37;2.05;;;1.55;;
76167;SDS011;64927;48.214;16.378;2023-05-07T00:15:03;2.60;;;1.75;;
76167;SDS011;64927;48.214;16.378;2023-05-07T00:17:30;2.38;;;1.67;;
76167;SDS011;64927;48.214;16.378;2023-05-07T00:19:58;3.92;;;1.52;;
76167;SDS011;64927;48.214;16.378;2023-05-07T00:22:24;2.30;;;1.80;;
76167;SDS011;64927;48.214;16.378;2023-05-07T00:24:49;5.97;;;1.90;;
76167;SDS011;64927;48.214;16.378;2023-05-07T00:27:17;1.90;;;1.70;;
76167;SDS011;64927;48.214;16.378;2023-05-07T00:29:43;2.13;;;1.52;;
76167;SDS011;64927;48.214;16.378;2023-05-07T00:32:08;3.85;;;1.75;;
76167;SDS011;64927;48.214;16.378;2023-05-07T00:34:34;2.60;;;1.83;;
76167;SDS011;64927;48.214;16.378;2023-05-07T00:37:02;2.45;;;1.75;;
76167;SDS011;64927;48.214;16.378;2023-05-07T00:39:30;3.75;;;2.15;;
76167;SDS011;64927;48.214;16.378;2023-05-07T00:41:55;6.55;;;2.25;;
76167;SDS011;64927;48.214;16.378;2023-05-07T00:44:21;2.88;;;1.92;;
76167;SDS011;64927;48.214;16.378;2023-05-07T00:46:47;4.85;;;2.25;;
76167;SDS011;64927;48.214;16.378;2023-05-07T00:49:14;3.15;;;2.08;;
76167;SDS011;64927;48.214;16.378;2023-05-07T00:51:40;4.57;;;1.98;;
76167;SDS011;64927;48.214;16.378;2023-05-07T00:54:09;3.35;;;2.40;;
76167;SDS011;64927;48.214;16.378;2023-05-07T00:56:36;2.80;;;2.17;;
76167;SDS011;64927;48.214;16.378;2023-05-07T00:59:02;3.22;;;2.45;;
76167;SDS011;64927;48.214;16.378;2023-05-07T01:01:28;3.47;;;1.85;;
76167;SDS011;64927;48.214;16.378;2023-05-07T01:03:54;3.90;;;2.15;;
76167;SDS011;64927;48.214;16.378;2023-05-07T01:06:20;3.45;;;2.03;;
76167;SDS011;64927;48.214;16.378;2023-05-07T01:08:50;5.22;;;2.45;;
76167;SDS011;64927;48.214;16.378;2023-05-07T01:11:17;7.57;;;2.10;;
76167;SDS011;64927;48.214;16.378;2023-05-07T01:13:45;3.97;;;2.75;;
76167;SDS011;64927;48.214;16.378;2023-05-07T01:16:12;5.05;;;2.60;;
76167;SDS011;64927;48.214;16.378;2023-05-07T01:18:38;3.60;;;2.33;;
76167;SDS011;64927;48.214;16.378;2023-05-07T01:21:06;10.18;;;2.33;;
76167;SDS011;64927;48.214;16.378;2023-05-07T01:23:35;3.33;;;2.15;;
76167;SDS011;64927;48.214;16.378;2023-05-07T01:26:02;4.38;;;2.45;;
76167;SDS011;64927;48.214;16.378;2023-05-07T01:28:30;3.55;;;2.75;;
76167;SDS011;64927;48.214;16.378;2023-05-07T01:30:56;3.88;;;2.80;;
76167;SDS011;64927;48.214;16.378;2023-05-07T01:33:26;6.13;;;2.90;;
76167;SDS011;64927;48.214;16.378;2023-05-07T01:35:56;4.25;;;2.47;;
76167;SDS011;64927;48.214;16.378;2023-05-07T01:38:23;4.38;;;2.78;;
76167;SDS011;64927;48.214;16.378;2023-05-07T01:40:49;6.07;;;3.58;;
76167;SDS011;64927;48.214;16.378;2023-05-07T01:43:15;3.70;;;2.78;;
76167;SDS011;64927;48.214;16.378;2023-05-07T01:45:43;3.90;;;2.78;;
76167;SDS011;64927;48.214;16.378;2023-05-07T01:48:10;5.78;;;2.80;;
76167;SDS011;64927;48.214;16.378;2023-05-07T01:50:37;5.85;;;2.63;;
76167;SDS011;64927;48.214;16.378;2023-05-07T01:53:09;6.30;;;2.78;;
76167;SDS011;64927;48.214;16.378;2023-05-07T01:55:35;7.00;;;2.72;;
76167;SDS011;64927;48.214;16.378;2023-05-07T01:58:02;4.32;;;2.35;;
76167;SDS011;64927;48.214;16.378;2023-05-07T02:00:28;3.50;;;2.50;;
76167;SDS011;64927;48.214;16.378;2023-05-07T02:02:54;3.40;;;2.40;;
76167;SDS011;64927;48.214;16.378;2023-05-07T02:05:19;4.13;;;2.60;;
76167;SDS011;64927;48.214;16.378;2023-05-07T02:07:45;2.72;;;2.10;;
76167;SDS011;64927;48.214;16.378;2023-05-07T02:10:13;3.28;;;2.20;;
76167;SDS011;64927;48.214;16.378;2023-05-07T02:12:39;2.65;;;2.28;;
76167;SDS011;64927;48.214;16.378;2023-05-07T02:15:04;5.32;;;2.50;;
76167;SDS011;64927;48.214;16.378;2023-05-07T02:17:30;3.30;;;2.20;;
76167;SDS011;64927;48.214;16.378;2023-05-07T02:20:00;3.10;;;2.25;;
76167;SDS011;64927;48.214;16.378;2023-05-07T02:22:26;3.92;;;2.40;;
76167;SDS011;64927;48.214;16.378;2023-05-07T02:24:51;4.93;;;2.83;;
76167;SDS011;64927;48.214;16.378;2023-05-07T02:27:17;3.13;;;2.28;;
76167;SDS011;64927;48.214;16.378;2023-05-07T02:29:42;4.50;;;2.30;;
76167;SDS011;64927;48.214;16.378;2023-05-07T02:32:10;3.97;;;2.72;;
76167;SDS011;64927;48.214;16.378;2023-05-07T02:34:36;3.47;;;2.50;;
76167;SDS011;64927;48.214;16.378;2023-05-07T02:37:01;3.47;;;2.63;;
76167;SDS011;64927;48.214;16.378;2023-05-07T02:39:27;4.80;;;3.10;;
76167;SDS011;64927;48.214;16.378;2023-05-07T02:41:53;3.83;;;2.80;;
76167;SDS011;64927;48.214;16.378;2023-05-07T02:44:18;5.15;;;3.15;;
76167;SDS011;64927;48.214;16.378;2023-05-07T02:46:44;9.60;;;3.78;;
76167;SDS011;64927;48.214;16.378;2023-05-07T02:49:12;4.65;;;3.17;;
76167;SDS011;64927;48.214;16.378;2023-05-07T02:51:37;5.50;;;3.50;;
76167;SDS011;64927;48.214;16.378;2023-05-07T02:54:03;4.57;;;3.40;;
76167;SDS011;64927;48.214;16.378;2023-05-07T02:56:29;4.28;;;3.88;;
76167;SDS011;64927;48.214;16.378;2023-05-07T02:58:55;6.15;;;3.90;;
76167;SDS011;64927;48.214;16.378;2023-05-07T03:01:23;6.43;;;3.53;;
76167;SDS011;64927;48.214;16.378;2023-05-07T03:03:49;5.80;;;4.18;;
76167;SDS011;64927;48.214;16.378;2023-05-07T03:06:14;5.97;;;4.45;;
76167;SDS011;64927;48.214;16.378;2023-05-07T03:08:42;9.35;;;5.13;;
76167;SDS011;64927;48.214;16.378;2023-05-07T03:11:10;7.00;;;4.78;;
76167;SDS011;64927;48.214;16.378;2023-05-07T03:13:36;6.30;;;4.80;;
76167;SDS011;64927;48.214;16.378;2023-05-07T03:16:04;6.43;;;4.55;;
76167;SDS011;64927;48.214;16.378;2023-05-07T03:18:30;7.15;;;5.05;;
76167;SDS011;64927;48.214;16.378;2023-05-07T03:20:56;6.72;;;4.63;;
76167;SDS011;64927;48.214;16.378;2023-05-07T03:23:22;12.27;;;4.80;;
76167;SDS011;64927;48.214;16.378;2023-05-07T03:25:47;12.25;;;5.20;;
76167;SDS011;64927;48.214;16.378;2023-05-07T03:28:13;7.20;;;5.28;;
76167;SDS011;64927;48.214;16.378;2023-05-07T03:30:42;7.47;;;5.18;;
76167;SDS011;64927;48.214;16.378;2023-05-07T03:33:07;9.30;;;5.22;;
76167;SDS011;64927;48.214;16.378;2023-05-07T03:35:33;9.15;;;5.68;;
76167;SDS011;64927;48.214;16.378;2023-05-07T03:38:01;7.70;;;4.97;;
76167;SDS011;64927;48.214;16.378;2023-05-07T03:40:26;8.30;;;5.45;;
76167;SDS011;64927;48.214;16.378;2023-05-07T03:42:52;9.27;;;6.07;;
76167;SDS011;64927;48.214;16.378;2023-05-07T03:45:18;8.88;;;6.18;;
76167;SDS011;64927;48.214;16.378;2023-05-07T03:47:43;7.95;;;6.05;;
76167;SDS011;64927;48.214;16.378;2023-05-07T03:50:09;7.63;;;5.63;;
76167;SDS011;64927;48.214;16.378;2023-05-07T03:52:35;20.13;;;6.60;;
76167;SDS011;64927;48.214;16.378;2023-05-07T03:55:01;9.90;;;6.72;;
76167;SDS011;64927;48.214;16.378;2023-05-07T03:57:26;10.32;;;6.00;;
76167;SDS011;64927;48.214;16.378;2023-05-07T03:59:52;10.57;;;7.10;;
76167;SDS011;64927;48.214;16.378;2023-05-07T04:02:17;11.50;;;6.60;;
76167;SDS011;64927;48.214;16.378;2023-05-07T04:04:43;9.60;;;6.57;;
76167;SDS011;64927;48.214;16.378;2023-05-07T04:07:09;9.93;;;5.80;;
76167;SDS011;64927;48.214;16.378;2023-05-07T04:09:34;8.95;;;6.43;;
76167;SDS011;64927;48.214;16.378;2023-05-07T04:12:02;11.23;;;6.10;;
76167;SDS011;64927;48.214;16.378;2023-05-07T04:14:28;9.05;;;6.30;;
76167;SDS011;64927;48.214;16.378;2023-05-07T04:16:56;9.50;;;6.53;;
76167;SDS011;64927;48.214;16.378;2023-05-07T04:19:25;10.68;;;7.13;;
76167;SDS011;64927;48.214;16.378;2023-05-07T04:21:51;9.48;;;6.22;;
76167;SDS011;64927;48.214;16.378;2023-05-07T04:24:17;11.25;;;7.30;;
76167;SDS011;64927;48.214;16.378;2023-05-07T04:26:45;9.88;;;6.90;;
76167;SDS011;64927;48.214;16.378;2023-05-07T04:29:11;11.80;;;8.57;;
76167;SDS011;64927;48.214;16.378;2023-05-07T04:31:37;13.00;;;8.18;;
76167;SDS011;64927;48.214;16.378;2023-05-07T04:34:02;13.35;;;9.30;;
76167;SDS011;64927;48.214;16.378;2023-05-07T04:36:28;12.45;;;9.40;;
76167;SDS011;64927;48.214;16.378;2023-05-07T04:38:54;15.68;;;9.95;;
76167;SDS011;64927;48.214;16.378;2023-05-07T04:41:19;12.77;;;9.93;;
76167;SDS011;64927;48.214;16.378;2023-05-07T04:43:48;19.80;;;11.45;;
76167;SDS011;64927;48.214;16.378;2023-05-07T04:46:13;13.65;;;10.00;;
76167;SDS011;64927;48.214;16.378;2023-05-07T04:48:39;14.23;;;10.40;;
76167;SDS011;64927;48.214;16.378;2023-05-07T04:51:04;15.18;;;10.75;;
76167;SDS011;64927;48.214;16.378;2023-05-07T04:53:31;14.93;;;10.65;;
76167;SDS011;64927;48.214;16.378;2023-05-07T04:55:57;19.55;;;11.10;;
76167;SDS011;64927;48.214;16.378;2023-05-07T04:58:23;15.88;;;11.30;;
76167;SDS011;64927;48.214;16.378;2023-05-07T05:00:49;17.00;;;10.02;;
76167;SDS011;64927;48.214;16.378;2023-05-07T05:03:14;19.70;;;12.63;;
76167;SDS011;64927;48.214;16.378;2023-05-07T05:05:40;16.98;;;12.30;;
76167;SDS011;64927;48.214;16.378;2023-05-07T05:08:06;17.83;;;12.68;;
76167;SDS011;64927;48.214;16.378;2023-05-07T05:10:31;19.02;;;13.25;;
76167;SDS011;64927;48.214;16.378;2023-05-07T05:12:57;23.05;;;13.65;;
76167;SDS011;64927;48.214;16.378;2023-05-07T05:15:23;20.73;;;14.80;;
76167;SDS011;64927;48.214;16.378;2023-05-07T05:17:50;25.90;;;14.63;;
76167;SDS011;64927;48.214;16.378;2023-05-07T05:20:19;21.77;;;14.85;;
76167;SDS011;64927;48.214;16.378;2023-05-07T05:22:44;25.98;;;16.20;;
76167;SDS011;64927;48.214;16.378;2023-05-07T05:25:10;27.42;;;17.75;;
76167;SDS011;64927;48.214;16.378;2023-05-07T05:27:35;23.30;;;16.58;;
76167;SDS011;64927;48.214;16.378;2023-05-07T05:30:01;26.13;;;17.27;;
76167;SDS011;64927;48.214;16.378;2023-05-07T05:32:28;25.80;;;18.50;;
76167;SDS011;64927;48.214;16.378;2023-05-07T05:34:53;26.33;;;17.77;;
76167;SDS011;64927;48.214;16.378;2023-05-07T05:37:21;22.67;;;16.83;;
76167;SDS011;64927;48.214;16.378;2023-05-07T05:39:47;24.17;;;16.25;;
76167;SDS011;64927;48.214;16.378;2023-05-07T05:42:14;23.60;;;15.35;;
76167;SDS011;64927;48.214;16.378;2023-05-07T05:44:40;33.95;;;18.05;;
76167;SDS011;64927;48.214;16.378;2023-05-07T05:47:10;23.13;;;15.32;;
76167;SDS011;64927;48.214;16.378;2023-05-07T05:49:36;24.45;;;15.75;;
76167;SDS011;64927;48.214;16.378;2023-05-07T05:52:08;24.30;;;17.38;;
76167;SDS011;64927;48.214;16.378;2023-05-07T05:54:34;23.98;;;16.35;;
76167;SDS011;64927;48.214;16.378;2023-05-07T05:56:59;20.88;;;15.45;;
76167;SDS011;64927;48.214;16.378;2023-05-07T05:59:25;23.83;;;15.60;;
76167;SDS011;64927;48.214;16.378;2023-05-07T06:01:50;20.98;;;16.15;;
76167;SDS011;64927;48.214;16.378;2023-05-07T06:04:19;22.83;;;15.68;;
76167;SDS011;64927;48.214;16.378;2023-05-07T06:06:44;25.38;;;15.13;;
76167;SDS011;64927;48.214;16.378;2023-05-07T06:09:10;24.70;;;15.45;;
76167;SDS011;64927;48.214;16.378;2023-05-07T06:11:36;22.10;;;15.77;;
76167;SDS011;64927;48.214;16.378;2023-05-07T06:14:01;23.83;;;16.75;;
76167;SDS011;64927;48.214;16.378;2023-05-07T06:16:30;23.77;;;15.75;;
76167;SDS011;64927;48.214;16.378;2023-05-07T06:18:55;23.75;;;15.60;;
76167;SDS011;64927;48.214;16.378;2023-05-07T06:21:21;21.50;;;15.25;;
76167;SDS011;64927;48.214;16.378;2023-05-07T06:23:49;24.65;;;15.77;;
76167;SDS011;64927;48.214;16.378;2023-05-07T06:26:16;19.45;;;14.60;;
76167;SDS011;64927;48.214;16.378;2023-05-07T06:28:42;22.42;;;15.70;;
76167;SDS011;64927;48.214;16.378;2023-05-07T06:31:17;23.42;;;17.05;;
76167;SDS011;64927;48.214;16.378;2023-05-07T06:33:46;22.30;;;15.23;;
76167;SDS011;64927;48.214;16.378;2023-05-07T06:36:11;24.75;;;15.13;;
76167;SDS011;64927;48.214;16.378;2023-05-07T06:38:37;22.10;;;15.43;;
76167;SDS011;64927;48.214;16.378;2023-05-07T06:41:03;23.75;;;15.65;;
76167;SDS011;64927;48.214;16.378;2023-05-07T06:43:31;25.27;;;15.73;;
76167;SDS011;64927;48.214;16.378;2023-05-07T06:45:58;18.33;;;13.80;;
76167;SDS011;64927;48.214;16.378;2023-05-07T06:48:26;20.42;;;14.77;;
76167;SDS011;64927;48.214;16.378;2023-05-07T06:50:52;21.20;;;15.07;;
76167;SDS011;64927;48.214;16.378;2023-05-07T06:53:22;21.38;;;14.57;;
76167;SDS011;64927;48.214;16.378;2023-05-07T06:55:48;21.17;;;15.80;;
76167;SDS011;64927;48.214;16.378;2023-05-07T06:58:14;20.38;;;15.63;;
76167;SDS011;64927;48.214;16.378;2023-05-07T07:00:42;22.98;;;15.45;;
76167;SDS011;64927;48.214;16.378;2023-05-07T07:03:07;21.15;;;15.65;;
76167;SDS011;64927;48.214;16.378;2023-05-07T07:05:33;21.77;;;15.05;;
76167;SDS011;64927;48.214;16.378;2023-05-07T07:07:58;21.17;;;14.68;;
76167;SDS011;64927;48.214;16.378;2023-05-07T07:10:24;23.92;;;16.13;;
76167;SDS011;64927;48.214;16.378;2023-05-07T07:12:49;30.02;;;16.38;;
76167;SDS011;64927;48.214;16.378;2023-05-07T07:15:17;21.02;;;15.85;;
76167;SDS011;64927;48.214;16.378;2023-05-07T07:17:43;20.85;;;14.57;;
76167;SDS011;64927;48.214;16.378;2023-05-07T07:20:11;21.10;;;16.15;;
76167;SDS011;64927;48.214;16.378;2023-05-07T07:22:39;20.52;;;14.80;;
76167;SDS011;64927;48.214;16.378;2023-05-07T07:25:05;22.90;;;15.93;;
76167;SDS011;64927;48.214;16.378;2023-05-07T07:27:30;22.20;;;15.57;;
76167;SDS011;64927;48.214;16.378;2023-05-07T07:29:56;20.23;;;14.65;;
76167;SDS011;64927;48.214;16.378;2023-05-07T07:32:24;17.73;;;13.52;;
76167;SDS011;64927;48.214;16.378;2023-05-07T07:34:49;22.98;;;13.80;;
76167;SDS011;64927;48.214;16.378;2023-05-07T07:37:15;19.83;;;14.38;;
76167;SDS011;64927;48.214;16.378;2023-05-07T07:39:40;22.38;;;14.57;;
76167;SDS011;64927;48.214;16.378;2023-05-07T07:42:06;19.85;;;14.68;;
76167;SDS011;64927;48.214;16.378;2023-05-07T07:44:32;24.13;;;15.38;;
76167;SDS011;64927;48.214;16.378;2023-05-07T07:46:57;20.85;;;15.10;;
76167;SDS011;64927;48.214;16.378;2023-05-07T07:49:23;20.48;;;15.00;;
76167;SDS011;64927;48.214;16.378;2023-05-07T07:51:48;20.85;;;14.38;;
76167;SDS011;64927;48.214;16.378;2023-05-07T07:54:14;19.58;;;13.32;;
76167;SDS011;64927;48.214;16.378;2023-05-07T07:56:40;17.92;;;13.80;;
76167;SDS011;64927;48.214;16.378;2023-05-07T07:59:05;20.70;;;14.85;;
76167;SDS011;64927;48.214;16.378;2023-05-07T08:01:31;20.77;;;14.38;;
76167;SDS011;64927;48.214;16.378;2023-05-07T08:03:57;20.88;;;15.45;;
76167;SDS011;64927;48.214;16.378;2023-05-07T08:06:25;21.92;;;14.98;;
76167;SDS011;64927;48.214;16.378;2023-05-07T08:08:53;18.27;;;14.43;;
76167;SDS011;64927;48.214;16.378;2023-05-07T08:11:19;22.63;;;14.70;;
76167;SDS011;64927;48.214;16.378;2023-05-07T08:13:46;21.27;;;14.68;;
76167;SDS011;64927;48.214;16.378;2023-05-07T08:16:11;21.35;;;14.65;;
76167;SDS011;64927;48.214;16.378;2023-05-07T08:18:37;23.25;;;14.18;;
76167;SDS011;64927;48.214;16.378;2023-05-07T08:21:03;20.08;;;13.68;;
76167;SDS011;64927;48.214;16.378;2023-05-07T08:23:28;18.17;;;13.02;;
76167;SDS011;64927;48.214;16.378;2023-05-07T08:25:55;18.30;;;12.82;;
76167;SDS011;64927;48.214;16.378;2023-05-07T08:28:21;18.65;;;12.40;;
76167;SDS011;64927;48.214;16.378;2023-05-07T08:30:46;19.55;;;13.90;;
76167;SDS011;64927;48.214;16.378;2023-05-07T08:33:15;19.45;;;13.43;;
76167;SDS011;64927;48.214;16.378;2023-05-07T08:35:40;20.58;;;12.50;;
76167;SDS011;64927;48.214;16.378;2023-05-07T08:38:06;17.75;;;12.60;;
76167;SDS011;64927;48.214;16.378;2023-05-07T08:40:33;18.23;;;12.55;;
76167;SDS011;64927;48.214;16.378;2023-05-07T08:43:05;18.15;;;12.70;;
76167;SDS011;64927;48.214;16.378;2023-05-07T08:45:32;17.65;;;12.25;;
76167;SDS011;64927;48.214;16.378;2023-05-07T08:48:05;16.88;;;11.85;;
76167;SDS011;64927;48.214;16.378;2023-05-07T08:50:35;19.67;;;11.98;;
76167;SDS011;64927;48.214;16.378;2023-05-07T08:53:02;17.88;;;11.48;;
76167;SDS011;64927;48.214;16.378;2023-05-07T08:55:29;16.92;;;11.07;;
76167;SDS011;64927;48.214;16.378;2023-05-07T08:57:55;13.63;;;10.18;;
76167;SDS011;64927;48.214;16.378;2023-05-07T09:00:21;16.02;;;10.50;;
76167;SDS011;64927;48.214;16.378;2023-05-07T09:02:46;14.73;;;9.88;;
76167;SDS011;64927;48.214;16.378;2023-05-07T09:05:12;12.88;;;10.05;;
76167;SDS011;64927;48.214;16.378;2023-05-07T09:07:38;14.15;;;9.88;;
76167;SDS011;64927;48.214;16.378;2023-05-07T09:10:04;18.00;;;10.68;;
76167;SDS011;64927;48.214;16.378;2023-05-07T09:12:31;15.18;;;9.57;;
76167;SDS011;64927;48.214;16.378;2023-05-07T09:14:57;12.40;;;9.23;;
76167;SDS011;64927;48.214;16.378;2023-05-07T09:17:23;15.80;;;10.57;;
76167;SDS011;64927;48.214;16.378;2023-05-07T09:19:51;15.38;;;9.95;;
76167;SDS011;64927;48.214;16.378;2023-05-07T09:22:18;12.75;;;9.25;;
76167;SDS011;64927;48.214;16.378;2023-05-07T09:24:50;12.98;;;9.25;;
76167;SDS011;64927;48.214;16.378;2023-05-07T09:27:17;13.65;;;9.38;;
76167;SDS011;64927;48.214;16.378;2023-05-07T09:29:46;13.88;;;9.48;;
76167;SDS011;64927;48.214;16.378;2023-05-07T09:32:11;12.38;;;9.82;;
76167;SDS011;64927;48.214;16.378;2023-05-07T09:34:40;12.32;;;9.25;;
76167;SDS011;64927;48.214;16.378;2023-05-07T09:37:06;13.93;;;9.30;;
76167;SDS011;64927;48.214;16.378;2023-05-07T09:39:42;13.15;;;9.20;;
76167;SDS011;64927;48.214;16.378;2023-05-07T09:42:09;12.83;;;9.60;;
76167;SDS011;64927;48.214;16.378;2023-05-07T09:44:36;13.15;;;8.60;;
76167;SDS011;64927;48.214;16.378;2023-05-07T09:47:05;13.48;;;9.57;;
76167;SDS011;64927;48.214;16.378;2023-05-07T09:49:36;13.40;;;10.05;;
76167;SDS011;64927;48.214;16.378;2023-05-07T09:52:07;13.27;;;9.57;;
76167;SDS011;64927;48.214;16.378;2023-05-07T09:54:35;12.35;;;8.57;;
76167;SDS011;64927;48.214;16.378;2023-05-07T09:57:03;11.27;;;8.65;;
76167;SDS011;64927;48.214;16.378;2023-05-07T09:59:30;10.93;;;8.40;;
76167;SDS011;64927;48.214;16.378;2023-05-07T10:01:59;13.52;;;9.93;;
76167;SDS011;64927;48.214;16.378;2023-05-07T10:04:28;14.93;;;9.77;;
76167;SDS011;64927;48.214;16.378;2023-05-07T10:06:55;13.25;;;10.30;;
76167;SDS011;64927;48.214;16.378;2023-05-07T10:09:23;13.02;;;9.57;;
76167;SDS011;64927;48.214;16.378;2023-05-07T10:11:53;12.18;;;9.02;;
76167;SDS011;64927;48.214;16.378;2023-05-07T10:14:20;11.75;;;8.30;;
76167;SDS011;64927;48.214;16.378;2023-05-07T10:16:46;11.05;;;7.72;;
76167;SDS011;64927;48.214;16.378;2023-05-07T10:19:13;13.57;;;8.40;;
76167;SDS011;64927;48.214;16.378;2023-05-07T10:21:43;11.75;;;8.77;;
76167;SDS011;64927;48.214;16.378;2023-05-07T10:24:16;11.18;;;8.50;;
76167;SDS011;64927;48.214;16.378;2023-05-07T10:26:52;9.77;;;7.63;;
76167;SDS011;64927;48.214;16.378;2023-05-07T10:29:29;12.13;;;8.30;;
76167;SDS011;64927;48.214;16.378;2023-05-07T10:35:25;13.70;;;9.00;;
76167;SDS011;64927;48.214;16.378;2023-05-07T10:37:54;12.30;;;9.13;;
76167;SDS011;64927;48.214;16.378;2023-05-07T10:40:20;10.88;;;8.88;;
76167;SDS011;64927;48.214;16.378;2023-05-07T10:42:53;13.60;;;9.80;;
76167;SDS011;64927;48.214;16.378;2023-05-07T10:45:24;13.27;;;8.90;;
76167;SDS011;64927;48.214;16.378;2023-05-07T10:48:06;14.45;;;10.02;;
76167;SDS011;64927;48.214;16.378;2023-05-07T10:50:40;12.13;;;9.35;;
76167;SDS011;64927;48.214;16.378;2023-05-07T10:55:52;12.63;;;8.95;;
76167;SDS011;64927;48.214;16.378;2023-05-07T10:59:07;13.40;;;9.23;;
76167;SDS011;64927;48.214;16.378;2023-05-07T11:01:49;14.48;;;9.38;;
76167;SDS011;64927;48.214;16.378;2023-05-07T11:04:22;12.77;;;8.68;;
76167;SDS011;64927;48.214;16.378;2023-05-07T11:15:09;11.73;;;9.07;;
76167;SDS011;64927;48.214;16.378;2023-05-07T11:17:55;11.98;;;8.38;;
76167;SDS011;64927;48.214;16.378;2023-05-07T11:23:12;13.68;;;8.73;;
76167;SDS011;64927;48.214;16.378;2023-05-07T11:26:03;12.60;;;8.13;;
76167;SDS011;64927;48.214;16.378;2023-05-07T11:28:31;13.00;;;8.23;;
76167;SDS011;64927;48.214;16.378;2023-05-07T11:31:02;11.57;;;7.45;;
76167;SDS011;64927;48.214;16.378;2023-05-07T11:33:28;10.82;;;8.10;;
76167;SDS011;64927;48.214;16.378;2023-05-07T11:35:55;12.68;;;8.75;;
76167;SDS011;64927;48.214;16.378;2023-05-07T11:38:21;12.63;;;8.38;;
76167;SDS011;64927;48.214;16.378;2023-05-07T11:40:48;10.73;;;7.30;;
76167;SDS011;64927;48.214;16.378;2023-05-07T11:43:29;10.10;;;7.93;;
76167;SDS011;64927;48.214;16.378;2023-05-07T11:45:58;10.00;;;7.70;;
76167;SDS011;64927;48.214;16.378;2023-05-07T11:48:36;9.98;;;7.40;;
76167;SDS011;64927;48.214;16.378;2023-05-07T11:51:04;11.20;;;7.43;;
76167;SDS011;64927;48.214;16.378;2023-05-07T11:53:40;8.98;;;6.40;;
76167;SDS011;64927;48.214;16.378;2023-05-07T11:56:10;8.50;;;6.75;;
76167;SDS011;64927;48.214;16.378;2023-05-07T11:58:38;10.10;;;6.70;;
76167;SDS011;64927;48.214;16.378;2023-05-07T12:01:06;11.60;;;6.57;;
76167;SDS011;64927;48.214;16.378;2023-05-07T12:03:34;9.50;;;7.07;;
76167;SDS011;64927;48.214;16.378;2023-05-07T12:06:02;10.88;;;7.35;;
76167;SDS011;64927;48.214;16.378;2023-05-07T12:08:30;10.80;;;7.43;;
76167;SDS011;64927;48.214;16.378;2023-05-07T12:10:56;10.48;;;7.15;;
76167;SDS011;64927;48.214;16.378;2023-05-07T12:13:26;9.73;;;6.72;;
76167;SDS011;64927;48.214;16.378;2023-05-07T12:15:52;8.32;;;6.47;;
76167;SDS011;64927;48.214;16.378;2023-05-07T12:18:19;9.50;;;6.88;;
76167;SDS011;64927;48.214;16.378;2023-05-07T12:20:45;8.52;;;6.68;;
76167;SDS011;64927;48.214;16.378;2023-05-07T12:23:11;8.65;;;6.35;;
76167;SDS011;64927;48.214;16.378;2023-05-07T12:25:38;10.57;;;7.20;;
76167;SDS011;64927;48.214;16.378;2023-05-07T12:28:12;9.75;;;6.68;;
76167;SDS011;64927;48.214;16.378;2023-05-07T12:30:40;11.52;;;7.07;;
76167;SDS011;64927;48.214;16.378;2023-05-07T12:33:08;11.02;;;6.50;;
76167;SDS011;64927;48.214;16.378;2023-05-07T12:35:37;9.18;;;6.60;;
76167;SDS011;64927;48.214;16.378;2023-05-07T12:38:07;10.60;;;7.22;;
76167;SDS011;64927;48.214;16.378;2023-05-07T12:40:43;8.32;;;6.25;;
76167;SDS011;64927;48.214;16.378;2023-05-07T12:45:43;8.45;;;6.28;;
76167;SDS011;64927;48.214;16.378;2023-05-07T12:48:10;11.90;;;5.90;;
76167;SDS011;64927;48.214;16.378;2023-05-07T12:50:36;9.48;;;6.50;;
76167;SDS011;64927;48.214;16.378;2023-05-07T12:53:05;7.88;;;6.15;;
76167;SDS011;64927;48.214;16.378;2023-05-07T12:55:34;8.05;;;5.22;;
76167;SDS011;64927;48.214;16.378;2023-05-07T12:58:32;6.50;;;5.10;;
76167;SDS011;64927;48.214;16.378;2023-05-07T13:00:59;7.25;;;5.68;;
76167;SDS011;64927;48.214;16.378;2023-05-07T13:05:54;6.55;;;4.97;;
76167;SDS011;64927;48.214;16.378;2023-05-07T13:08:24;6.32;;;4.95;;
76167;SDS011;64927;48.214;16.378;2023-05-07T13:10:58;7.80;;;5.30;;
76167;SDS011;64927;48.214;16.378;2023-05-07T13:13:28;7.55;;;5.60;;
76167;SDS011;64927;48.214;16.378;2023-05-07T13:15:57;9.35;;;5.45;;
76167;SDS011;64927;48.214;16.378;2023-05-07T13:18:25;6.63;;;4.95;;
76167;SDS011;64927;48.214;16.378;2023-05-07T13:20:51;6.72;;;5.00;;
76167;SDS011;64927;48.214;16.378;2023-05-07T13:23:22;7.72;;;5.57;;
76167;SDS011;64927;48.214;16.378;2023-05-07T13:25:48;6.80;;;5.20;;
76167;SDS011;64927;48.214;16.378;2023-05-07T13:28:15;5.72;;;4.55;;
76167;SDS011;64927;48.214;16.378;2023-05-07T13:30:41;6.22;;;4.88;;
76167;SDS011;64927;48.214;16.378;2023-05-07T13:33:07;8.30;;;5.47;;
76167;SDS011;64927;48.214;16.378;2023-05-07T13:35:33;7.75;;;5.57;;
76167;SDS011;64927;48.214;16.378;2023-05-07T13:38:02;6.47;;;5.00;;
76167;SDS011;64927;48.214;16.378;2023-05-07T13:40:27;7.30;;;4.78;;
76167;SDS011;64927;48.214;16.378;2023-05-07T13:42:53;6.45;;;4.38;;
76167;SDS011;64927;48.214;16.378;2023-05-07T13:45:21;6.55;;;4.82;;
76167;SDS011;64927;48.214;16.378;2023-05-07T13:47:52;9.65;;;5.07;;
76167;SDS011;64927;48.214;16.378;2023-05-07T13:50:18;7.15;;;4.32;;
76167;SDS011;64927;48.214;16.378;2023-05-07T13:52:44;8.88;;;5.18;;
76167;SDS011;64927;48.214;16.378;2023-05-07T13:55:19;6.25;;;4.97;;
76167;SDS011;64927;48.214;16.378;2023-05-07T13:57:46;6.00;;;4.65;;
76167;SDS011;64927;48.214;16.378;2023-05-07T14:00:23;5.35;;;4.38;;
76167;SDS011;64927;48.214;16.378;2023-05-07T14:02:49;8.27;;;4.18;;
76167;SDS011;64927;48.214;16.378;2023-05-07T14:05:14;7.47;;;5.05;;
76167;SDS011;64927;48.214;16.378;2023-05-07T14:07:40;8.45;;;5.13;;
76167;SDS011;64927;48.214;16.378;2023-05-07T14:10:08;6.97;;;5.20;;
76167;SDS011;64927;48.214;16.378;2023-05-07T14:12:36;6.28;;;5.00;;
76167;SDS011;64927;48.214;16.378;2023-05-07T14:15:01;6.93;;;5.00;;
76167;SDS011;64927;48.214;16.378;2023-05-07T14:17:27;5.75;;;4.30;;
76167;SDS011;64927;48.214;16.378;2023-05-07T14:19:53;9.77;;;4.07;;
76167;SDS011;64927;48.214;16.378;2023-05-07T14:22:20;5.50;;;4.25;;
76167;SDS011;64927;48.214;16.378;2023-05-07T14:24:47;6.70;;;4.25;;
76167;SDS011;64927;48.214;16.378;2023-05-07T14:27:13;5.43;;;4.25;;
76167;SDS011;64927;48.214;16.378;2023-05-07T14:29:41;7.35;;;4.85;;
76167;SDS011;64927;48.214;16.378;2023-05-07T14:32:08;5.60;;;4.32;;
76167;SDS011;64927;48.214;16.378;2023-05-07T14:34:34;6.63;;;4.10;;
76167;SDS011;64927;48.214;16.378;2023-05-07T14:37:00;8.68;;;3.90;;
76167;SDS011;64927;48.214;16.378;2023-05-07T14:39:26;6.70;;;4.93;;
76167;SDS011;64927;48.214;16.378;2023-05-07T14:41:54;4.78;;;3.58;;
76167;SDS011;64927;48.214;16.378;2023-05-07T14:44:21;7.18;;;4.80;;
76167;SDS011;64927;48.214;16.378;2023-05-07T14:46:46;5.47;;;4.05;;